LIEALFKJ

Guest
Details From LIEA - ALGHERO
To LFKJ - Napoleon Bonaparte
Flight Number -
Tags generated
Created
Modified
Stats Distance 81 nm / 150 km
Max Altitude 8,500 ft / 2,591 m
Waypoints 4
Social Downloads 0
Likes 0
Share VATSIM

Download

Looking for another format? Having issues loading an existing format? Contact us
Advertisement - Login to hide

Notes

Basic altitude profile: - Ascent Rate: 400ft/min - Ascent Speed: 95kts - Cruise Altitude: 3500ft - Cruise Speed: 125kts - Descent Rate: 400ft/min - Descent Speed: 90kts Options: - Use NATs: no - Use PACOTS: no - Use low airways: yes - Use high airways: no

Route

LIEA POULP L42 AJO LFKJ

ID Type Via Altitude Latitude Longitude Leg Dist Tot Dist Heading (true) Name
O LIEA APT - 0 ft / 0 m 40.63213˚ 8.29077˚ - 0 nm - ALGHERO
POULP FIX - 7,900 ft / 2,408 m 41.33333˚ 8.57000˚ 43 nm 43 nm 17° / 17° -
AJO VOR L42 (AWY-LO) 8,500 ft / 2,591 m 41.77053˚ 8.77467˚ 27 nm 71 nm 19° / 19° AJACCIO VOR-DME
O LFKJ APT - 0 ft / 0 m 41.92289˚ 8.79959˚ 9 nm 81 nm 7° / 7° Napoleon Bonaparte

Altitude Profile

Advertisement - Login to hide

LIEA

Details ICAO LIEA (AHO)
Name ALGHERO
Region Italy
Timezone Europe/Rome (UTC+1.0)
Stats Elevation 87 ft / 27 m (AMSL)
Location 40.632132° 8.290774°
Runways 1
Magnetic Variation 2.194° E

METAR

LIEA 131650Z 26007KT 230V300 9999 SCT040 12/06 Q1023

Decode

TAF

TAF LIEA 131100Z 1312/1412 29010KT BECMG 1316/1318 23010KT

Decode

Departure Runways

ID Width Length Bearing (true) Bearing (mag) Surface Threshold Offset Overrun Length
02 148 ft / 45 m 9,854 ft / 3,004 m 24.51° 22.32° Asphalt 0 ft / 0 m 0 ft / 0 m
20 148 ft / 45 m 9,854 ft / 3,004 m 204.52° 202.33° Asphalt 0 ft / 0 m 0 ft / 0 m

LFKJ

Details ICAO LFKJ (AJA)
Name Napoleon Bonaparte
Region France
Timezone Europe/Paris (UTC+1.0)
Stats Elevation 18 ft / 5 m (AMSL)
Location 41.922886° 8.799587°
Runways 2
Magnetic Variation 2.329° E

METAR

LFKJ 131700Z AUTO VRB03KT 9999 FEW048 10/05 Q1021 NOSIG

Decode

TAF

TAF LFKJ 131400Z 1315/1415 31010KT 9999 SCT050 BECMG 1316/1318 04006KT BECMG 1320/1322 RA BECMG 1322/1324 25010KT BECMG 1408/1410 NSW

Decode

Destination Runways

ID Width Length Bearing (true) Bearing (mag) Surface Threshold Offset Overrun Length
02 180 ft / 55 m 7,899 ft / 2,408 m 24.94° 22.61° Asphalt 0 ft / 0 m 164 ft / 50 m
10 98 ft / 30 m 3,447 ft / 1,051 m 94.35° 92.02° Concrete 0 ft / 0 m 164 ft / 50 m
20 180 ft / 55 m 7,899 ft / 2,408 m 204.95° 202.62° Asphalt 745 ft / 227 m 230 ft / 70 m
28 98 ft / 30 m 3,447 ft / 1,051 m 274.36° 272.03° Concrete 213 ft / 65 m 0 ft / 0 m

Approach Navaids

Runway Type Ident Frequency Range Bearing (true) Bearing (mag) Slope Elevation
02 Localiser AC 110.30 MHz 27 nm / 50 km 24.92° 22.59° - 18 ft / 5 m (AMSL)
02 Glidescope AC 110.30 MHz 27 nm / 50 km 24.92° 22.59° 3.00° 18 ft / 5 m (AMSL)
02 DME AC 110.30 MHz 27 nm / 50 km - - - 18 ft / 5 m (AMSL)

Popular Alternatives